Have a Safe July 4th! 

Flight Track Log - Related Links

Times and Time Zones

All times are in EDT time to prevent confusion due to time zone crossing. See the AWE411 flight status page for this flight to view local times or setup timezone preferences in your user account.

Time Position Orientation Groundspeed Altitude Reporting Facility
EDT Latitude Longitude Course Direction KTS MPH feet Rate Location/Type
Thu 07:29:36 PM 33.6500 -117.8833 90° East 141 162 1,700  Level Southern California TRACON
Thu 07:31:10 PM 33.5822 -117.8972 190° South 164 189 4,500 2,217 Climbing Los Angeles Center
Thu 07:32:00 PM 33.5073 -117.6156 54° Northeast  Level FlightAware Approximate
Thu 07:32:13 PM 33.5189 -117.8453 146° Southeast 246 283 7,500  Level Los Angeles Center
Thu 07:33:00 PM 33.5507 -117.5092 66° East  Level FlightAware Approximate
Thu 07:33:15 PM 33.5339 -117.7517 79° East 286 329 10,500  Level Los Angeles Center
Thu 07:34:00 PM 33.5833 -117.3984 90° East  Level FlightAware Approximate
Thu 07:34:17 PM 33.5558 -117.6353 77° East 341 392 12,200  Level Los Angeles Center
Thu 07:35:19 PM 33.5772 -117.5217 77° East 363 418 14,900 2,419 Climbing Los Angeles Center
Thu 07:36:21 PM 33.5867 -117.3942 85° East 389 448 17,200 2,274 Climbing Los Angeles Center
Thu 07:37:23 PM 33.5908 -117.2639 88° East 392 451 19,600 2,400 Climbing Los Angeles Center
Thu 07:38:26 PM 33.5972 -117.1019 87° East 402 463 22,200 2,160 Climbing Los Angeles Center
Thu 07:39:28 PM 33.6022 -116.9647 87° East 409 471 24,100 1,694 Climbing Los Angeles Center
Thu 07:40:30 PM 33.6072 -116.8131 88° East 421 484 25,700 1,403 Climbing Los Angeles Center
Thu 07:41:32 PM 33.6119 -116.6697 88° East 427 491 27,000 1,016 Climbing Los Angeles Center
Thu 07:42:34 PM 33.6169 -116.5203 88° East 443 510 27,800 1,452 Climbing Los Angeles Center
Thu 07:43:36 PM 33.6219 -116.3708 88° East 448 516 30,000 1,500 Climbing Los Angeles Center
Thu 07:44:38 PM 33.6275 -116.2236 87° East 441 507 30,900 1,008 Climbing Los Angeles Center
Thu 07:45:41 PM 33.6250 -116.0669 91° East 463 533 32,100 1,008 Climbing Los Angeles Center
Thu 07:46:43 PM 33.6214 -115.8842 91° East 461 531 33,000 435 Climbing Los Angeles Center
Thu 07:47:45 PM 33.6214 -115.7336 90° East 455 524 33,000  Level Los Angeles Center
Thu 07:48:47 PM 33.6153 -115.5803 93° East 456 525 33,000 -48 Level Los Angeles Center
Thu 07:49:49 PM 33.6108 -115.4267 92° East 458 527 32,900  Descending Los Angeles Center
Thu 07:50:51 PM 33.6081 -115.2731 91° East 459 528 33,000 48 Climbing Los Angeles Center
Thu 07:51:54 PM 33.6044 -115.1183 92° East 465 535 33,000 -48 Level Los Angeles Center
Thu 07:52:56 PM 33.5989 -114.9322 92° East 469 540 32,900 -532 Descending Los Angeles Center
Thu 07:53:58 PM 33.5936 -114.7778 92° East 468 539 31,900 -968 Descending Los Angeles Center
Thu 07:55:00 PM 33.5686 -114.6278 101° East 466 536 30,900 -968 Descending Los Angeles Center
Thu 07:56:02 PM 33.5406 -114.4786 103° East 465 535 29,900 -1,161 Descending Los Angeles Center
Thu 07:57:04 PM 33.5119 -114.3325 103° East 454 522 28,500 -1,694 Descending Los Angeles Center
Thu 07:58:06 PM 33.4833 -114.1914 104° East 438 504 26,400 -1,554 Descending Los Angeles Center
Thu 07:59:23 PM 33.4483 -114.0050 103° East 419 482 24,900 -604 Descending Albuquerque Center
Thu 08:00:25 PM 33.4228 -113.8758 103° East 405 466 25,000 48 Climbing Albuquerque Center
Thu 08:01:27 PM 33.3958 -113.7456 104° East 403 464 25,000  Level Albuquerque Center
Thu 08:02:15 PM 33.3736 -113.6408 104° East 404 465 25,000 -1,200 Level Los Angeles Center
Thu 08:03:17 PM 33.3503 -113.5194 103° East 389 448 22,800 -1,742 Descending Los Angeles Center
Thu 08:04:19 PM 33.3247 -113.3944 104° East 388 447 21,400 -1,694 Descending Los Angeles Center
Thu 08:05:21 PM 33.2939 -113.2486 104° East 382 440 19,300 -1,728 Descending Los Angeles Center
Thu 08:06:24 PM 33.2744 -113.1294 101° East 373 429 17,800 -1,209 Descending Los Angeles Center
Thu 08:07:40 PM 33.2764 -112.9894 89° East 353 406 16,500 -826 Descending Albuquerque Center
Thu 08:08:42 PM 33.2797 -112.8750 88° East 349 402 15,900 -581 Descending Albuquerque Center
Thu 08:09:44 PM 33.2811 -112.7628 89° East 343 395 15,300 -823 Descending Albuquerque Center
Thu 08:10:46 PM 33.2844 -112.6367 88° East 324 373 14,200 -1,016 Descending Albuquerque Center
Thu 08:11:48 PM 33.2878 -112.5422 88° East 318 366 13,200 -1,065 Descending Albuquerque Center
Thu 08:12:50 PM 33.2900 -112.4428 88° East 304 350 12,000 -1,161 Descending Albuquerque Center
Thu 08:13:52 PM 33.2942 -112.3256 88° East 299 344 10,800 -968 Descending Albuquerque Center
Thu 08:14:54 PM 33.3014 -112.2303 85° East 293 337 10,000 -677 Descending Albuquerque Center
Thu 08:15:56 PM 33.3069 -112.1469 85° East 259 298 9,400 -677 Descending Albuquerque Center
Thu 08:16:58 PM 33.3189 -112.0664 80° East 251 289 8,600 -968 Descending Albuquerque Center
Thu 08:18:00 PM 33.3381 -111.9886 74° East 249 287 7,400 -1,258 Descending Albuquerque Center
Thu 08:19:02 PM 33.3453 -111.9006 84° East 220 253 6,000 -1,488 Descending Albuquerque Center
Thu 08:20:05 PM 33.3661 -111.8408 67° East 225 259 4,300 -1,349 Descending Albuquerque Center
Thu 08:21:11 PM 33.4167 -111.8833 325° Northwest 198 228 3,100 -992 Descending Phoenix TRACON
Thu 08:22:12 PM 33.4333 -111.9333 292° West 165 190 2,200 -793 Descending Phoenix TRACON
Thu 08:23:12 PM 33.4333 -111.9833 270° West 134 154 1,500 -700 Descending Phoenix TRACON

Login

Don't have an account? Register now (free) for customized features, flight alerts, and more!